Bourg, Louisiana
Current Conditions -  °F | °C
As of 11:47 AM on Thursday 29 Jan 2015 (Local Time) from KHUM Reporting Station
Broken Clouds Broken Clouds  
Wind Chill: 72°   Ceiling: 3000
Heat Index: 72°   Visibility: 7mi
Dew Point: 61°   Wind: 7mph
Humidity: 69%   Direction: 170°S
Pressure: 30.26"   Gusts: NA
Location:  29.55°N, 90.6°W
Report Text: KHUM 291747Z 17006KT 7SM BKN030 22/16 A3026 RMK RY12/30 CLSD ATIS Y VA/RY18...DV
Loading
Personal Weather Stations






























Interactive Weather Map New forecast layout! Learn more

10-Day Weather Forecast

Advertisements
Track Severe Weather on mobile